Time;durP1;ratioP1;P1;durP2;ratioP2;P2;SDS_P1;SDS_P2;PMS_P1;PMS_P2;Temp;Humidity;BMP_temperature;BMP_pressure;BME280_temperature;BME280_humidity;BME280_pressure;Samples;Min_cycle;Max_cycle;Signal;HPM_P1;HPM_P2
2022/01/04 00:02:17;;;;;;;;;3.75;3.50;;;;;15.38;51.03;97544.16;4724727;28;102819;-76
2022/01/04 00:04:50;;;;;;;;;6.00;3.25;;;;;15.40;50.59;97542.00;4710237;28;105332;-76
2022/01/04 00:07:49;;;;;;;;;2.75;2.75;;;;;15.37;51.43;97537.03;4732944;28;102614;-77
2022/01/04 00:11:13;;;;;;;;;3.75;3.75;;;;;15.44;51.23;97543.13;4730099;28;103601;-76
2022/01/04 00:13:49;;;;;;;;;3.75;3.25;;;;;15.39;50.89;97543.06;4640919;28;104906;-77
2022/01/04 00:16:41;;;;;;;;;3.00;3.00;;;;;15.44;51.43;97554.03;4664148;28;104600;-76
2022/01/04 00:19:20;;;;;;;;;3.75;3.50;;;;;15.37;51.52;97534.31;4645201;28;102650;-77
2022/01/04 00:21:55;;;;;;;;;4.00;3.75;;;;;15.41;50.85;97544.44;4670126;28;102253;-76
2022/01/04 00:24:28;;;;;;;;;4.00;4.00;;;;;15.37;50.98;97534.31;4656262;28;103921;-77
2022/01/04 00:27:42;;;;;;;;;4.50;3.75;;;;;15.36;51.05;97528.03;4645887;28;107965;-77
2022/01/04 00:30:29;;;;;;;;;2.75;2.75;;;;;15.36;51.21;97522.59;4673403;28;102690;-77
2022/01/04 00:33:17;;;;;;;;;4.00;4.00;;;;;15.34;51.37;97521.22;4747892;28;103888;-76
2022/01/04 00:36:07;;;;;;;;;3.00;3.00;;;;;15.38;51.26;97538.69;4622124;28;103835;-76
2022/01/04 00:39:01;;;;;;;;;3.75;3.00;;;;;15.38;50.99;97522.34;4766109;28;110548;-76
2022/01/04 00:41:45;;;;;;;;;3.75;3.75;;;;;15.33;51.12;97520.41;4772184;28;102473;-77
2022/01/04 00:44:20;;;;;;;;;3.00;3.00;;;;;15.32;51.08;97521.47;4701569;28;103959;-77
2022/01/04 00:50:38;;;;;;;;;5.00;3.25;;;;;15.38;50.82;97522.34;4655338;28;109002;-76
2022/01/04 00:53:43;;;;;;;;;;;;;;;;;;;;;
2022/01/04 00:56:30;;;;;;;;;2.50;2.50;;;;;15.32;51.21;97518.75;4270214;28;4419733;-77
2022/01/04 00:59:25;;;;;;;;;;;;;;;;;;;;;
2022/01/04 01:02:30;;;;;;;;;4.00;3.00;;;;;15.34;50.85;97518.50;4541969;28;110179;-77
2022/01/04 01:05:26;;;;;;;;;2.25;2.25;;;;;15.32;51.18;97515.19;4609911;28;104100;-77
2022/01/04 01:58:10;;;;;;;;;3.00;2.00;;;;;15.26;51.29;97469.97;5637191;23;108219;-78
2022/01/04 02:01:40;;;;;;;;;;;;;;;;;;;;;
2022/01/04 02:08:11;;;;;;;;;3.33;2.67;;;;;15.25;51.59;97462.84;4954178;23;5161079;-76
2022/01/04 02:11:11;;;;;;;;;2.00;1.75;;;;;15.28;50.89;97446.00;5389666;23;2513145;-76
2022/01/04 02:14:02;;;;;;;;;1.00;1.00;;;;;15.25;51.35;97447.34;5612398;23;103108;-76
2022/01/04 02:17:06;;;;;;;;;3.75;2.25;;;;;15.25;51.26;97438.34;5122926;23;6756236;-77
2022/01/04 02:22:38;;;;;;;;;3.00;2.75;;;;;15.22;51.44;97428.78;5264670;23;3391473;-77
2022/01/04 02:25:31;;;;;;;;;2.00;2.00;;;;;15.23;51.43;97421.44;5287663;23;5381810;-77
2022/01/04 02:38:52;;;;;;;;;;;;;;;;;;;;;
2022/01/04 02:41:33;;;;;;;;;1.00;1.00;;;;;15.18;51.31;97406.69;4621445;28;102779;-75
2022/01/04 02:44:41;;;;;;;;;2.00;2.00;;;;;15.15;51.16;97392.78;4659125;28;102789;-75
2022/01/04 02:47:49;;;;;;;;;1.00;1.00;;;;;15.23;51.26;97399.66;4584479;28;103849;-75
2022/01/04 02:51:23;;;;;;;;;;;;;;;;;;;;;
2022/01/04 02:53:52;;;;;;;;;2.00;2.00;;;;;15.19;51.36;97389.28;4309294;29;5070307;-76
2022/01/04 02:56:55;;;;;;;;;3.00;3.00;;;;;15.21;51.65;97374.59;4540602;28;102639;-75
2022/01/04 03:00:44;;;;;;;;;2.50;2.00;;;;;15.17;51.02;97379.75;3628586;29;6629911;-75
2022/01/04 03:04:20;;;;;;;;;2.00;2.00;;;;;15.21;51.42;97380.88;4771156;27;104151;-78
2022/01/04 03:07:54;;;;;;;;;1.25;1.25;;;;;15.15;51.09;97358.22;4586792;28;103201;-78
2022/01/04 03:10:36;;;;;;;;;;;;;;;;;;;;;
2022/01/04 03:18:01;;;;;;;;;3.25;1.75;;;;;15.11;51.50;97329.88;4561823;28;102594;-78
2022/01/04 03:38:13;;;;;;;;;3.75;2.00;;;;;15.11;51.46;97294.47;6049534;22;2227846;-76
2022/01/04 03:40:54;;;;;;;;;1.00;1.00;;;;;15.13;51.55;97307.81;5527744;22;103969;-76
2022/01/04 03:43:44;;;;;;;;;;;;;;;;;;;;;
2022/01/04 04:25:08;;;;;;;;;;;;;;;;;;;;;
2022/01/04 04:28:18;;;;;;;;;0.75;0.75;;;;;15.09;51.67;97284.91;4830241;28;103456;-75
2022/01/04 04:35:31;;;;;;;;;;;;;;;;;;;;;
2022/01/04 04:38:25;;;;;;;;;1.00;1.00;;;;;15.04;51.28;97274.81;4441455;29;579545;-76
2022/01/04 04:44:27;;;;;;;;;1.00;1.00;;;;;15.09;51.47;97258.50;4023527;27;22104169;-76
2022/01/04 05:02:38;;;;;;;;;1.00;1.00;;;;;15.12;50.82;97235.41;5222958;21;18691695;-78
2022/01/04 05:06:06;;;;;;;;;0.00;0.00;;;;;15.11;51.42;97236.47;5664659;23;979090;-78
2022/01/04 05:09:04;;;;;;;;;2.00;1.00;;;;;15.11;51.33;97231.84;4635204;27;102744;-75
2022/01/04 05:12:10;;;;;;;;;1.50;1.00;;;;;15.10;51.38;97230.22;4661632;28;102880;-75
2022/01/04 05:15:03;;;;;;;;;2.00;1.00;;;;;15.13;50.94;97226.13;4650984;27;108718;-76
2022/01/04 05:17:40;;;;;;;;;0.25;0.25;;;;;15.10;51.53;97221.22;4779963;28;102997;-75
2022/01/04 05:20:21;;;;;;;;;1.00;1.00;;;;;15.06;51.18;97210.03;4831139;28;102721;-75
2022/01/04 05:22:48;;;;;;;;;1.00;1.00;;;;;15.09;50.81;97201.34;4759869;28;103915;-75
2022/01/04 05:29:23;;;;;;;;;1.00;1.00;;;;;15.10;50.75;97215.78;4711483;28;103966;-76
2022/01/04 05:32:03;;;;;;;;;1.00;1.00;;;;;15.10;51.20;97202.97;4732544;28;102948;-76
2022/01/04 05:42:36;;;;;;;;;;;;;;;;;;;;;
2022/01/04 15:55:00;;;;;;;;;1.25;0.75;;;;;14.85;51.18;96236.88;6227821;22;103066;-60
2022/01/04 15:57:39;;;;;;;;;2.75;2.75;;;;;14.93;52.44;96232.69;6203465;22;102857;-84
2022/01/04 16:27:38;;;;;;;;;;;;;;;;;;;;;
2022/01/04 16:48:33;;;;;;;;;11.50;10.00;;;;;16.14;53.74;96230.50;6277959;22;102243;-60
2022/01/04 16:51:19;;;;;;;;;11.25;9.75;;;;;16.19;53.92;96222.25;6276015;22;102228;-60
2022/01/04 16:53:46;;;;;;;;;13.50;8.75;;;;;16.24;53.43;96222.19;6263989;22;108745;-61
2022/01/04 16:56:13;;;;;;;;;10.00;9.00;;;;;16.29;53.53;96216.66;6276539;22;102179;-61
2022/01/04 16:59:00;;;;;;;;;10.00;10.00;;;;;16.33;53.38;96206.78;6242635;22;102428;-60
2022/01/04 17:01:27;;;;;;;;;11.25;9.50;;;;;16.32;53.02;96208.69;6273086;22;102951;-60
2022/01/04 17:03:55;;;;;;;;;7.00;7.00;;;;;16.29;52.16;96206.56;6272493;22;104172;-60
2022/01/04 17:06:22;;;;;;;;;11.25;9.75;;;;;16.27;52.41;96207.94;6273551;22;102356;-60
2022/01/04 17:08:52;;;;;;;;;9.00;9.00;;;;;16.26;52.48;96207.13;6276186;22;102224;-60
2022/01/04 17:11:23;;;;;;;;;12.50;10.50;;;;;16.24;52.45;96189.47;6276918;22;102214;-60
2022/01/04 17:16:37;;;;;;;;;13.75;12.50;;;;;16.27;52.85;96199.78;6272114;22;102448;-60
2022/01/04 17:19:05;;;;;;;;;10.00;9.50;;;;;16.37;52.64;96199.63;6243923;22;102482;-61
2022/01/04 17:21:33;;;;;;;;;10.25;9.00;;;;;16.37;52.42;96194.97;6271556;22;102692;-62
2022/01/04 17:24:20;;;;;;;;;9.50;9.00;;;;;16.29;52.77;96170.31;6272670;22;109722;-62
2022/01/04 17:26:49;;;;;;;;;6.25;4.50;;;;;16.50;52.83;96188.75;6265313;22;102371;-60
2022/01/04 17:29:18;;;;;;;;;7.75;6.75;;;;;16.56;52.74;96191.41;6270320;22;102428;-61
2022/01/04 17:31:47;;;;;;;;;7.00;7.00;;;;;16.60;52.39;96206.09;6265924;22;102241;-61
2022/01/04 17:34:14;;;;;;;;;9.25;8.00;;;;;16.60;52.54;96197.94;6275570;22;103756;-61
2022/01/04 17:36:42;;;;;;;;;11.75;10.00;;;;;16.57;51.18;96193.81;6268675;22;102383;-61
2022/01/04 17:39:09;;;;;;;;;7.50;7.25;;;;;16.58;51.61;96191.94;6263414;22;102518;-60
2022/01/04 17:41:37;;;;;;;;;9.25;8.50;;;;;16.57;51.81;96184.84;6275408;22;102599;-60
2022/01/04 17:44:05;;;;;;;;;9.50;7.25;;;;;16.55;52.10;96185.16;6273700;22;103599;-61
2022/01/04 17:46:34;;;;;;;;;8.75;7.75;;;;;16.52;52.41;96186.53;6272904;22;102765;-61
2022/01/04 17:49:02;;;;;;;;;9.00;9.00;;;;;16.51;51.99;96187.66;6248699;22;102225;-61
2022/01/04 17:51:30;;;;;;;;;10.00;7.75;;;;;16.49;52.51;96187.13;6269330;22;102287;-60
2022/01/04 17:53:58;;;;;;;;;8.00;7.75;;;;;16.50;51.58;96177.84;6245627;22;103008;-61
2022/01/04 17:56:25;;;;;;;;;9.50;9.25;;;;;16.51;52.36;96184.13;6243773;22;102165;-61
2022/01/04 17:58:55;;;;;;;;;8.00;6.50;;;;;16.52;52.25;96177.56;6273921;22;102724;-61
2022/01/04 18:01:22;;;;;;;;;10.75;8.00;;;;;16.56;52.91;96181.31;6273521;22;102567;-61
2022/01/04 18:04:10;;;;;;;;;10.75;9.00;;;;;16.58;51.76;96176.38;6249888;22;109788;-61
2022/01/04 18:06:37;;;;;;;;;7.25;6.25;;;;;16.58;52.38;96168.19;6275430;22;102692;-61
2022/01/04 18:09:04;;;;;;;;;8.50;7.75;;;;;16.56;52.19;96167.69;6270692;22;102435;-61
2022/01/04 18:11:32;;;;;;;;;7.25;7.25;;;;;16.57;51.82;96171.22;6273051;22;102326;-61
2022/01/04 18:13:59;;;;;;;;;10.00;7.50;;;;;16.55;52.63;96167.97;6275751;22;104371;-61
2022/01/04 18:16:26;;;;;;;;;10.00;10.00;;;;;16.54;51.93;96167.16;6246773;22;102448;-61
2022/01/04 18:18:53;;;;;;;;;10.75;10.25;;;;;16.53;52.06;96177.25;6273179;22;102357;-61
2022/01/04 18:21:25;;;;;;;;;8.50;8.25;;;;;16.51;52.11;96174.03;6276754;22;102102;-60
2022/01/04 18:23:52;;;;;;;;;8.50;8.50;;;;;16.38;52.86;96135.78;6274099;22;103997;-61
2022/01/04 18:26:28;;;;;;;;;10.00;9.00;;;;;16.48;52.33;96152.78;6274532;22;102253;-61
2022/01/04 18:28:55;;;;;;;;;9.50;8.75;;;;;16.47;52.29;96147.66;6269320;22;102282;-61
2022/01/04 18:31:22;;;;;;;;;6.75;6.75;;;;;16.42;51.65;96143.06;6278080;22;102796;-61
2022/01/04 18:33:49;;;;;;;;;7.75;7.00;;;;;16.44;52.67;96148.22;6245541;22;104137;-61
2022/01/04 18:36:17;;;;;;;;;9.00;8.50;;;;;16.42;52.31;96154.00;6269682;22;102054;-61
2022/01/04 18:38:44;;;;;;;;;9.50;7.50;;;;;16.42;51.83;96154.00;6274882;22;102694;-62
2022/01/04 18:41:11;;;;;;;;;6.25;6.25;;;;;16.39;52.08;96149.09;6273120;22;102114;-61
2022/01/04 18:43:39;;;;;;;;;9.25;8.25;;;;;16.38;52.31;96141.25;6269998;22;103985;-61
2022/01/04 18:46:06;;;;;;;;;7.50;6.00;;;;;16.36;52.68;96149.72;6269560;22;102363;-61
2022/01/04 18:48:33;;;;;;;;;8.00;7.25;;;;;16.36;52.70;96141.53;6266058;22;102755;-61
2022/01/04 18:51:00;;;;;;;;;7.50;6.25;;;;;16.35;52.10;96141.81;6246278;22;102311;-61
2022/01/04 18:53:27;;;;;;;;;8.25;7.00;;;;;16.34;52.15;96142.94;6271501;22;103889;-61
2022/01/04 18:55:56;;;;;;;;;5.00;5.00;;;;;16.32;52.36;96137.78;6267400;22;102743;-61
2022/01/04 18:58:23;;;;;;;;;7.50;7.00;;;;;16.32;51.69;96142.44;6271113;22;102395;-61
2022/01/04 19:00:50;;;;;;;;;7.00;7.00;;;;;16.30;52.05;96145.44;6272857;22;102388;-61
2022/01/04 19:03:18;;;;;;;;;6.25;5.00;;;;;16.30;52.24;96139.97;6271727;22;103971;-61
2022/01/04 19:05:45;;;;;;;;;8.00;7.75;;;;;16.29;51.92;96140.31;6273796;22;102303;-62
2022/01/04 19:08:12;;;;;;;;;7.50;7.00;;;;;16.28;51.92;96144.13;6273219;22;102201;-61
2022/01/04 19:10:39;;;;;;;;;6.00;6.00;;;;;16.26;52.28;96140.88;6266284;22;102522;-61
2022/01/04 19:13:06;;;;;;;;;10.00;8.00;;;;;16.25;52.64;96147.47;6264098;22;104172;-61
2022/01/04 19:15:34;;;;;;;;;6.25;6.25;;;;;16.23;52.15;96139.56;6263638;22;102635;-59
2022/01/04 19:18:02;;;;;;;;;7.00;6.75;;;;;16.22;52.14;96127.03;6242749;22;102383;-60
2022/01/04 19:20:29;;;;;;;;;7.25;5.75;;;;;16.20;52.19;96123.81;6271972;22;102561;-59
2022/01/04 19:22:56;;;;;;;;;8.75;8.75;;;;;16.21;51.87;96135.53;6240829;22;103663;-60
2022/01/04 19:25:24;;;;;;;;;7.00;7.00;;;;;16.18;52.20;96131.47;6238614;22;102632;-60
2022/01/04 19:27:52;;;;;;;;;8.50;6.75;;;;;16.17;52.24;96139.94;6270428;22;102314;-60
2022/01/04 19:30:21;;;;;;;;;8.50;6.25;;;;;16.15;51.87;96147.59;6269966;22;102773;-60
2022/01/04 19:38:30;;;;;;;;;6.00;6.00;;;;;16.13;51.75;96122.53;6270353;22;102532;-60
2022/01/04 19:40:58;;;;;;;;;5.50;5.00;;;;;16.12;52.29;96134.59;6239565;22;102580;-60
2022/01/04 19:43:26;;;;;;;;;7.50;6.25;;;;;16.12;52.14;96134.59;6269801;22;103717;-60
2022/01/04 19:45:53;;;;;;;;;11.00;7.25;;;;;16.10;51.65;96144.97;6265693;22;102371;-60
2022/01/04 19:48:20;;;;;;;;;9.00;8.00;;;;;16.10;51.86;96132.13;6271408;22;102234;-60
2022/01/04 19:50:48;;;;;;;;;6.75;6.75;;;;;16.08;51.90;96126.97;6269633;22;102691;-60
2022/01/04 19:53:17;;;;;;;;;8.25;6.75;;;;;16.07;51.72;96136.25;6242189;22;103018;-60
2022/01/04 19:55:45;;;;;;;;;5.00;5.00;;;;;16.05;52.26;96135.75;6270945;22;102386;-60
2022/01/04 19:58:12;;;;;;;;;8.50;8.00;;;;;16.03;52.22;96118.88;6273554;22;102322;-60
2022/01/04 20:00:39;;;;;;;;;6.75;5.00;;;;;16.03;51.85;96135.22;6270013;22;102611;-60
2022/01/04 20:03:07;;;;;;;;;5.00;5.00;;;;;16.03;51.91;96137.94;6273179;22;104172;-60
2022/01/04 20:05:34;;;;;;;;;5.75;4.00;;;;;16.00;51.82;96127.66;6272128;22;102662;-59
2022/01/04 20:08:02;;;;;;;;;6.00;5.00;;;;;16.00;51.47;96129.56;6266866;22;102677;-60
2022/01/04 20:10:29;;;;;;;;;5.25;4.25;;;;;15.99;52.08;96136.13;6269094;22;102650;-60
2022/01/04 20:12:59;;;;;;;;;5.00;5.00;;;;;15.98;51.98;96132.59;6273050;22;103785;-60
2022/01/04 20:15:26;;;;;;;;;6.25;6.00;;;;;15.98;51.52;96134.50;6271022;22;102711;-60
2022/01/04 20:21:35;;;;;;;;;6.00;5.50;;;;;15.97;51.53;96122.81;6268093;22;102567;-60
2022/01/04 20:24:04;;;;;;;;;4.00;4.00;;;;;15.97;52.01;96127.44;6263755;22;103127;-60
2022/01/04 20:26:31;;;;;;;;;5.00;5.00;;;;;15.95;51.53;96127.72;6273284;22;102658;-60
2022/01/04 20:28:59;;;;;;;;;4.50;3.50;;;;;15.95;52.24;96127.72;6273416;22;102389;-60
2022/01/04 20:31:26;;;;;;;;;4.50;4.25;;;;;15.95;51.74;96129.63;6270116;22;102619;-61
2022/01/04 20:33:53;;;;;;;;;6.50;5.25;;;;;15.93;52.08;96129.94;6271860;22;104110;-61
2022/01/04 20:36:20;;;;;;;;;7.25;5.25;;;;;15.91;52.20;96123.16;6267424;22;102455;-60
2022/01/04 20:38:48;;;;;;;;;4.00;4.00;;;;;15.93;51.57;96126.41;6219409;22;102560;-61
2022/01/04 20:41:15;;;;;;;;;9.75;5.75;;;;;15.91;51.39;96121.25;6271165;22;102561;-60
2022/01/04 20:43:42;;;;;;;;;4.00;3.75;;;;;15.90;51.63;96114.16;6268397;22;109475;-61
2022/01/04 20:46:10;;;;;;;;;5.00;5.00;;;;;15.87;51.97;96114.78;6264130;22;102401;-61
2022/01/04 20:48:37;;;;;;;;;4.50;3.75;;;;;15.88;51.58;96132.75;6269581;22;102296;-61
2022/01/04 20:51:04;;;;;;;;;5.50;5.00;;;;;15.88;51.35;96146.38;6271425;22;102651;-61
2022/01/04 20:53:31;;;;;;;;;3.50;3.50;;;;;15.85;51.59;96141.50;6271348;22;103993;-61
2022/01/04 20:55:58;;;;;;;;;6.00;4.75;;;;;15.84;51.41;96158.97;6274045;22;102488;-61
2022/01/04 20:58:26;;;;;;;;;6.50;4.25;;;;;15.85;51.75;96170.69;6243038;22;102470;-61
2022/01/04 21:00:53;;;;;;;;;5.50;5.50;;;;;15.86;52.01;96173.09;6244718;22;102464;-61
2022/01/04 21:03:21;;;;;;;;;7.50;4.50;;;;;15.85;51.83;96174.19;6272329;22;103962;-61
2022/01/04 21:05:48;;;;;;;;;7.75;5.25;;;;;15.87;51.72;96187.53;6268811;22;102162;-61
2022/01/04 21:08:17;;;;;;;;;6.25;5.25;;;;;15.85;51.69;96181.59;6268823;22;102552;-61
2022/01/04 21:10:44;;;;;;;;;6.00;5.50;;;;;15.85;51.58;96196.00;6274554;22;102547;-61
2022/01/04 21:13:11;;;;;;;;;8.50;3.00;;;;;15.85;51.77;96203.38;6264460;22;104029;-61
2022/01/04 21:15:38;;;;;;;;;5.00;4.00;;;;;15.84;52.13;96212.66;6272634;22;102474;-61
2022/01/04 21:18:05;;;;;;;;;4.25;3.00;;;;;15.81;51.99;96222.22;6274865;22;102731;-61
2022/01/04 21:20:32;;;;;;;;;4.75;4.00;;;;;15.81;51.80;96241.28;6272872;22;102259;-61
2022/01/04 21:22:59;;;;;;;;;6.50;4.00;;;;;15.80;51.66;96258.75;6273527;22;104007;-61
2022/01/04 21:25:29;;;;;;;;;3.50;3.50;;;;;15.79;51.48;96268.03;6269841;22;102410;-61
2022/01/04 21:27:57;;;;;;;;;4.50;3.25;;;;;15.79;51.27;96278.94;6267867;22;102087;-61
2022/01/04 21:30:24;;;;;;;;;4.50;4.00;;;;;15.78;51.49;96307.28;6272727;22;102468;-61
2022/01/04 21:32:51;;;;;;;;;4.75;3.50;;;;;15.79;51.62;96327.16;6271468;22;104216;-61
2022/01/04 21:35:18;;;;;;;;;4.00;3.00;;;;;15.77;51.47;96332.88;6268133;22;102188;-61
2022/01/04 21:37:45;;;;;;;;;6.25;4.50;;;;;15.75;51.74;96313.31;6273072;22;103043;-61
2022/01/04 21:40:14;;;;;;;;;7.00;5.75;;;;;15.77;50.93;96313.81;6273004;22;102765;-61
2022/01/04 21:42:42;;;;;;;;;4.50;3.75;;;;;15.77;51.63;96327.44;6271969;22;108973;-61
2022/01/04 21:45:11;;;;;;;;;5.00;5.00;;;;;15.77;51.24;96324.72;6270639;22;102064;-61
2022/01/04 21:47:38;;;;;;;;;3.00;3.00;;;;;15.75;51.51;96339.75;6270128;22;102347;-61
2022/01/04 21:50:06;;;;;;;;;3.50;3.00;;;;;15.76;51.85;96347.59;6268297;22;102645;-61
2022/01/04 21:52:33;;;;;;;;;5.50;4.50;;;;;15.75;51.90;96345.19;6266946;22;103553;-61
2022/01/04 21:55:03;;;;;;;;;7.00;4.50;;;;;15.74;51.60;96360.72;6268788;22;102183;-61
2022/01/04 21:57:31;;;;;;;;;3.00;2.25;;;;;15.72;51.50;96368.38;6273223;22;102347;-61
2022/01/04 21:59:58;;;;;;;;;3.00;3.00;;;;;15.72;51.61;96378.44;6274078;22;102639;-61
2022/01/04 22:02:25;;;;;;;;;6.00;5.00;;;;;15.71;51.59;96372.22;6265560;22;103988;-61
2022/01/04 22:04:53;;;;;;;;;4.00;3.00;;;;;15.73;51.69;96386.34;6272555;22;102537;-61
2022/01/04 22:07:20;;;;;;;;;4.75;4.00;;;;;15.72;51.42;96384.72;6275587;22;102341;-61
2022/01/04 22:09:47;;;;;;;;;3.50;3.00;;;;;15.71;51.76;96391.28;6277232;22;104290;-61
2022/01/04 22:12:15;;;;;;;;;6.50;4.00;;;;;15.71;51.51;96404.91;6269009;22;104109;-61
2022/01/04 22:14:42;;;;;;;;;5.00;4.00;;;;;15.70;51.73;96411.44;6265039;22;102772;-61
2022/01/04 22:17:09;;;;;;;;;3.00;3.00;;;;;15.67;51.19;96403.81;6240620;22;102892;-61
2022/01/04 22:19:36;;;;;;;;;3.00;3.00;;;;;15.69;51.48;96407.09;6271846;22;102351;-61
2022/01/04 22:22:04;;;;;;;;;3.00;3.00;;;;;15.70;51.23;96400.56;6272259;22;103978;-61
2022/01/04 22:24:32;;;;;;;;;3.50;2.50;;;;;15.69;51.17;96407.09;6274732;22;102699;-61
2022/01/04 22:26:59;;;;;;;;;3.00;3.00;;;;;15.69;51.23;96414.44;6267334;22;102456;-61
2022/01/04 22:29:26;;;;;;;;;3.50;3.00;;;;;15.70;51.61;96414.16;6247000;22;102287;-61
2022/01/04 22:31:53;;;;;;;;;3.75;3.00;;;;;15.68;51.64;96416.34;6247087;22;104168;-61
2022/01/04 22:34:20;;;;;;;;;2.75;2.75;;;;;15.68;51.54;96432.72;6245969;22;102545;-61
2022/01/04 22:36:47;;;;;;;;;3.75;3.75;;;;;15.68;51.33;96454.50;6246732;22;102473;-61
2022/01/04 22:39:14;;;;;;;;;3.50;2.50;;;;;15.67;51.58;96455.59;6274982;22;102782;-61
2022/01/04 22:41:41;;;;;;;;;3.00;3.00;;;;;15.66;51.23;96462.16;6271464;22;104184;-61
2022/01/04 22:44:08;;;;;;;;;4.00;3.50;;;;;15.66;51.19;96459.44;6274179;22;102457;-61
2022/01/04 22:46:36;;;;;;;;;4.00;4.00;;;;;15.65;51.39;96457.81;6268654;22;102333;-61
2022/01/04 22:49:04;;;;;;;;;2.75;2.00;;;;;15.62;51.13;96466.56;6273474;22;103057;-61
2022/01/04 22:51:32;;;;;;;;;2.75;2.00;;;;;15.63;51.38;96462.72;6276376;22;103969;-61
2022/01/04 22:53:59;;;;;;;;;3.50;3.00;;;;;15.64;51.48;96458.91;6272962;22;102536;-61
2022/01/04 22:56:26;;;;;;;;;2.00;2.00;;;;;15.63;51.26;96468.16;6272896;22;102194;-61
2022/01/04 22:58:53;;;;;;;;;4.00;3.00;;;;;15.63;51.57;96487.22;6274832;22;102805;-61
2022/01/04 23:01:21;;;;;;;;;5.25;3.00;;;;;15.62;51.73;96488.34;6276462;22;104082;-61
2022/01/04 23:03:49;;;;;;;;;3.00;2.00;;;;;15.63;51.74;96465.44;6272720;22;102506;-61
2022/01/04 23:06:17;;;;;;;;;3.00;2.00;;;;;15.63;51.22;96476.34;6275104;22;102532;-61
2022/01/04 23:08:44;;;;;;;;;3.00;2.75;;;;;15.62;51.31;96475.53;6278556;22;102330;-61
2022/01/04 23:11:11;;;;;;;;;2.00;2.00;;;;;15.63;51.02;96479.06;6271770;22;104127;-61
2022/01/04 23:13:39;;;;;;;;;3.25;3.00;;;;;15.61;51.12;96487.53;6275437;22;102687;-61
2022/01/04 23:16:06;;;;;;;;;2.00;2.00;;;;;15.60;51.44;96506.88;6274920;22;102411;-61
2022/01/04 23:18:33;;;;;;;;;2.00;2.00;;;;;15.60;51.25;96518.59;6271724;22;102597;-61
2022/01/04 23:21:00;;;;;;;;;2.00;2.00;;;;;15.59;51.55;96522.41;6274946;22;103970;-61
2022/01/04 23:23:28;;;;;;;;;3.00;2.50;;;;;15.57;51.61;96521.91;6274821;22;102584;-61
2022/01/04 23:25:55;;;;;;;;;2.25;2.00;;;;;15.56;51.42;96522.97;6270685;22;102588;-61
2022/01/04 23:28:22;;;;;;;;;2.00;2.00;;;;;15.56;51.42;96524.88;6272908;22;102727;-61
2022/01/04 23:30:49;;;;;;;;;2.25;2.25;;;;;15.56;51.51;96530.34;6247201;22;104237;-61
2022/01/04 23:33:17;;;;;;;;;2.75;2.50;;;;;15.56;51.41;96533.06;6274516;22;102221;-61
2022/01/04 23:35:44;;;;;;;;;1.00;1.00;;;;;15.54;51.18;96530.63;6274041;22;102210;-61
2022/01/04 23:38:11;;;;;;;;;1.00;1.00;;;;;15.53;51.88;96544.53;6273519;22;102178;-61
2022/01/04 23:40:38;;;;;;;;;2.25;2.00;;;;;15.54;51.54;96541.50;6242428;22;103942;-61
2022/01/04 23:43:05;;;;;;;;;4.25;3.00;;;;;15.54;51.60;96540.69;6273472;22;102083;-61
2022/01/04 23:45:32;;;;;;;;;1.00;1.00;;;;;15.54;51.27;96549.69;6269487;22;102289;-61
2022/01/04 23:47:59;;;;;;;;;4.00;2.00;;;;;15.54;51.55;96565.22;6271624;22;102595;-61
2022/01/04 23:50:26;;;;;;;;;2.25;1.75;;;;;15.55;51.06;96564.13;6277123;22;104143;-61
2022/01/04 23:52:53;;;;;;;;;3.00;2.00;;;;;15.54;51.55;96565.22;6274454;22;102459;-61
2022/01/04 23:55:26;;;;;;;;;1.25;1.25;;;;;15.54;51.12;96576.09;6246818;22;102132;-61
2022/01/04 23:57:53;;;;;;;;;2.00;2.00;;;;;15.53;51.46;96571.78;6276668;22;102582;-61
